Time;durP1;ratioP1;P1;durP2;ratioP2;P2;SDS_P1;SDS_P2;PMS_P1;PMS_P2;Temp;Humidity;BMP_temperature;BMP_pressure;BME280_temperature;BME280_humidity;BME280_pressure;Samples;Min_cycle;Max_cycle;Signal;HPM_P1;HPM_P2
2021/06/05 06:00:18;;;;;;;10.72;9.63;;;;;;;17.73;73.11;100797.80;1607023;83;26928;31
2021/06/05 06:02:53;;;;;;;13.38;9.00;;;;;;;17.81;72.84;100795.52;1558880;89;25911;-55
2021/06/05 06:08:26;;;;;;;11.25;9.45;;;;;;;17.95;72.20;100795.74;1548940;89;26870;-56
2021/06/05 06:11:00;;;;;;;10.53;9.40;;;;;;;18.01;71.85;100800.59;1563631;89;26013;-57
2021/06/05 06:13:55;;;;;;;11.70;9.75;;;;;;;18.06;71.83;100802.30;1527270;90;26912;-56
2021/06/05 06:16:25;;;;;;;11.95;9.45;;;;;;;18.10;71.44;100806.74;1543794;90;25949;-55
2021/06/05 06:21:39;;;;;;;13.65;9.93;;;;;;;18.21;71.18;100805.67;1546885;90;25511;-56
2021/06/05 06:24:11;;;;;;;11.33;9.60;;;;;;;18.26;70.93;100807.37;1522351;91;26499;-56
2021/06/05 06:34:55;;;;;;;11.55;9.50;;;;;;;18.62;70.33;100822.03;1578685;85;26247;-56
2021/06/05 06:44:00;;;;;;;14.15;9.10;;;;;;;18.85;69.62;100827.77;1563055;89;25532;-57
2021/06/05 06:49:20;;;;;;;9.80;8.68;;;;;;;19.02;69.45;100826.63;1591961;87;25542;-62
2021/06/05 06:55:15;;;;;;;13.22;9.18;;;;;;;19.21;69.06;100825.33;1562150;89;26714;-62
2021/06/05 07:00:50;;;;;;;12.55;9.65;;;;;;;19.44;68.68;100824.68;1595509;85;26155;-57
2021/06/05 07:03:19;;;;;;;13.50;9.53;;;;;;;19.52;68.32;100825.66;1592127;87;25657;-57
2021/06/05 07:05:47;;;;;;;11.12;9.15;;;;;;;19.69;68.13;100828.00;1590363;87;26626;-56
2021/06/05 07:08:32;;;;;;;10.85;8.83;;;;;;;19.84;67.79;100823.66;1590597;88;26416;-57
2021/06/05 07:11:05;;;;;;;10.10;8.60;;;;;;;20.01;67.84;100818.33;1603700;86;26071;-56
2021/06/05 07:13:34;;;;;;;10.63;9.53;;;;;;;20.21;67.12;100816.95;1619668;85;27673;-55
2021/06/05 07:16:02;;;;;;;9.30;8.40;;;;;;;20.25;66.03;100820.58;1614186;85;35567;-57
2021/06/05 07:18:33;;;;;;;9.23;8.20;;;;;;;20.37;65.79;100823.16;1630720;85;25900;-56
2021/06/05 07:21:06;;;;;;;9.68;8.78;;;;;;;20.45;65.61;100819.41;1621377;85;26445;-54
2021/06/05 07:23:41;;;;;;;9.85;8.38;;;;;;;20.63;66.55;100812.87;1622382;85;25485;-55
2021/06/05 07:29:22;;;;;;;9.00;8.05;;;;;;;21.00;64.73;100815.09;1596664;86;26116;-55
2021/06/05 07:31:54;;;;;;;10.53;8.95;;;;;;;21.10;64.10;100816.44;1599331;85;25902;-55
2021/06/05 07:34:25;;;;;;;11.00;9.60;;;;;;;21.14;64.13;100812.38;1592880;86;26570;-54
2021/06/05 07:37:01;;;;;;;10.32;9.30;;;;;;;21.21;63.81;100810.52;1602565;86;26713;-54
2021/06/05 07:39:28;;;;;;;13.35;11.03;;;;;;;21.30;63.23;100816.34;1601038;87;27321;-53
2021/06/05 07:42:03;;;;;;;10.90;9.48;;;;;;;21.31;62.70;100813.81;1609570;86;25323;-52
2021/06/05 07:44:41;;;;;;;10.20;9.03;;;;;;;21.29;62.24;100815.56;1611438;87;25485;-54
2021/06/05 07:47:13;;;;;;;9.95;8.73;;;;;;;21.23;61.75;100813.72;1602257;85;26236;-54
2021/06/05 07:49:56;;;;;;;10.40;8.80;;;;;;;21.18;61.82;100813.21;1621112;86;26397;-54
2021/06/05 07:52:52;;;;;;;10.08;9.05;;;;;;;21.16;61.68;100808.66;1609728;86;25976;-53
2021/06/05 07:55:33;;;;;;;12.28;8.90;;;;;;;21.13;61.68;100810.22;1615284;85;25522;-54
2021/06/05 07:58:07;;;;;;;9.45;8.38;;;;;;;21.15;61.67;100802.97;1613382;86;26201;-55
2021/06/05 08:00:40;;;;;;;10.10;8.98;;;;;;;21.15;61.59;100802.38;1596682;87;26079;-55
2021/06/05 08:03:11;;;;;;;9.28;8.28;;;;;;;21.13;61.24;100799.21;1609237;86;25941;-55
2021/06/05 08:08:28;;;;;;;9.68;8.65;;;;;;;21.14;61.20;100787.62;1629884;85;25707;-55
2021/06/05 08:10:59;;;;;;;8.85;8.00;;;;;;;21.12;61.07;100789.95;1627375;85;26112;-54
2021/06/05 08:13:28;;;;;;;13.25;8.58;;;;;;;21.13;60.74;100789.59;1618627;85;26793;-55
2021/06/05 08:15:57;;;;;;;11.45;8.25;;;;;;;21.18;60.79;100788.45;1619964;85;26626;-55
2021/06/05 08:18:25;;;;;;;10.53;9.00;;;;;;;21.20;60.49;100787.53;1635139;85;27310;-55
2021/06/05 08:20:56;;;;;;;9.18;8.28;;;;;;;21.24;60.51;100791.91;1627347;85;26159;-55
2021/06/05 08:23:29;;;;;;;10.55;8.45;;;;;;;21.30;60.23;100791.02;1624992;85;26954;-55
2021/06/05 08:26:00;;;;;;;10.23;7.53;;;;;;;21.31;60.59;100790.44;1624443;85;26810;-55
2021/06/05 08:28:29;;;;;;;10.03;7.80;;;;;;;21.36;60.30;100790.12;1632351;86;25462;-55
2021/06/05 08:31:02;;;;;;;8.65;7.80;;;;;;;21.47;60.20;100792.48;1626601;85;27334;-55
2021/06/05 08:33:38;;;;;;;10.35;7.67;;;;;;;21.56;60.19;100789.45;1621755;85;25513;-56
2021/06/05 08:36:07;;;;;;;12.53;9.98;;;;;;;21.68;59.91;100788.44;1645819;85;25522;-55
2021/06/05 08:38:36;;;;;;;8.70;7.67;;;;;;;21.78;59.74;100794.08;1632160;85;25955;-55
2021/06/05 08:41:15;;;;;;;8.93;7.25;;;;;;;21.89;59.32;100775.52;1615728;86;26729;-55
2021/06/05 08:43:50;;;;;;;8.13;7.08;;;;;;;22.07;58.83;100783.42;1620135;85;27184;-55
2021/06/05 08:46:28;;;;;;;8.55;6.40;;;;;;;22.07;58.83;100783.42;1631395;85;27052;-55
2021/06/05 08:48:58;;;;;;;7.12;6.42;;;;;;;22.14;58.59;100777.98;1621484;85;25920;-55
2021/06/05 08:51:55;;;;;;;8.38;6.15;;;;;;;22.26;58.40;100778.31;1619886;86;25822;-56
2021/06/05 08:54:49;;;;;;;7.53;6.83;;;;;;;22.34;58.08;100773.72;1630387;85;26072;-57
2021/06/05 08:57:43;;;;;;;8.20;7.40;;;;;;;22.45;57.55;100773.82;1628192;84;27887;-56
2021/06/05 09:00:30;;;;;;;7.78;7.00;;;;;;;22.53;57.47;100769.37;1634777;85;26066;-56
2021/06/05 09:08:39;;;;;;;7.55;6.65;;;;;;;22.70;55.39;100770.71;1638629;85;25947;-59
2021/06/05 09:11:10;;;;;;;10.18;6.35;;;;;;;22.56;55.91;100770.00;1626379;85;27714;-56
2021/06/05 09:13:38;;;;;;;8.35;5.75;;;;;;;22.55;55.80;100769.00;1591307;86;26446;-56
2021/06/05 09:16:21;;;;;;;7.12;5.95;;;;;;;22.53;55.81;100767.21;1629600;83;26080;-53
2021/06/05 09:18:54;;;;;;;8.00;6.00;;;;;;;22.46;55.06;100770.69;1616987;85;26387;-56
2021/06/05 09:21:32;;;;;;;6.05;5.45;;;;;;;22.39;55.31;100766.48;1605857;86;26020;-58
2021/06/05 09:24:40;;;;;;;6.45;5.30;;;;;;;22.38;55.68;100775.32;1627286;86;27297;-58
2021/06/05 09:27:25;;;;;;;4.90;4.30;;;;;;;22.40;55.75;100770.03;1622234;84;26761;-58
2021/06/05 09:30:03;;;;;;;4.30;3.90;;;;;;;22.35;54.97;100767.02;1629282;85;26192;-58
2021/06/05 09:32:34;;;;;;;6.60;5.47;;;;;;;22.40;54.91;100763.92;1624320;84;25740;-59
2021/06/05 09:35:14;;;;;;;7.50;4.42;;;;;;;22.63;55.71;100766.52;1631774;85;26179;-58
2021/06/05 09:37:55;;;;;;;4.62;4.20;;;;;;;23.27;56.30;100764.08;1623047;85;25874;-58
2021/06/05 09:40:33;;;;;;;4.65;4.20;;;;;;;23.83;55.20;100766.96;1633420;85;25432;-58
2021/06/05 09:43:22;;;;;;;4.90;4.15;;;;;;;24.19;53.15;100762.15;1624300;85;26006;-58
2021/06/05 09:46:11;;;;;;;6.53;3.83;;;;;;;24.35;52.08;100759.83;1562089;87;26610;-58
2021/06/05 09:48:44;;;;;;;5.08;4.10;;;;;;;24.47;51.49;100757.28;1489651;92;32595;-67
2021/06/05 09:51:40;;;;;;;4.78;4.25;;;;;;;24.60;50.89;100754.37;1561883;90;29392;-71
2021/06/05 09:54:31;;;;;;;4.62;3.98;;;;;;;24.62;49.98;100755.36;1552319;89;26323;-70
2021/06/05 09:57:33;;;;;;;5.17;4.40;;;;;;;24.61;50.52;100751.00;1540825;90;26304;-68
2021/06/05 10:02:45;;;;;;;4.25;3.83;;;;;;;25.31;49.43;100750.58;1500790;93;25942;-67
2021/06/05 10:05:32;;;;;;;5.65;4.03;;;;;;;25.54;49.02;100749.53;1518404;92;27365;-66
2021/06/05 10:08:02;;;;;;;5.33;4.12;;;;;;;25.99;48.58;100742.64;1530196;92;25848;-65
2021/06/05 10:10:37;;;;;;;4.85;3.50;;;;;;;26.55;47.97;100739.91;1512193;93;25916;-65
2021/06/05 10:13:09;;;;;;;4.20;2.90;;;;;;;26.95;48.70;100735.63;1518990;93;26797;-64
2021/06/05 10:15:41;;;;;;;4.00;3.60;;;;;;;27.32;46.45;100736.85;1525983;91;25952;-64
2021/06/05 10:18:21;;;;;;;4.20;3.72;;;;;;;27.55;46.22;100734.04;1549233;91;27401;-63
2021/06/05 10:21:01;;;;;;;4.65;4.03;;;;;;;27.43;44.43;100731.78;1514437;93;25852;-62
2021/06/05 10:23:32;;;;;;;4.00;3.60;;;;;;;27.27;44.08;100730.33;1532628;92;25892;-62
2021/06/05 10:26:04;;;;;;;6.80;3.90;;;;;;;27.09;42.92;100726.95;1549257;92;25770;-62
2021/06/05 10:28:36;;;;;;;4.08;3.70;;;;;;;26.91;43.22;100722.38;1546667;92;25937;-60
2021/06/05 10:31:14;;;;;;;4.10;3.80;;;;;;;26.88;43.31;100715.47;1537195;91;28089;-61
2021/06/05 10:33:51;;;;;;;3.90;3.60;;;;;;;27.05;43.65;100717.89;1547270;90;27024;-61
2021/06/05 10:36:34;;;;;;;4.08;3.77;;;;;;;27.13;43.23;100708.29;1529269;90;25970;-60
2021/06/05 10:39:08;;;;;;;4.95;4.25;;;;;;;26.90;43.13;100705.55;1570746;88;25817;-60
2021/06/05 10:41:43;;;;;;;4.70;4.25;;;;;;;26.92;43.72;100710.08;1565612;90;26377;-61
2021/06/05 10:44:11;;;;;;;4.87;4.50;;;;;;;27.29;43.33;100706.34;1559578;89;27981;-59
2021/06/05 10:46:45;;;;;;;5.40;4.90;;;;;;;27.31;43.24;100702.55;1566857;89;28813;-60
2021/06/05 10:49:32;;;;;;;5.42;4.50;;;;;;;27.21;43.00;100705.63;1571607;90;25880;-60
2021/06/05 10:52:30;;;;;;;5.55;4.47;;;;;;;26.98;42.91;100694.55;1531728;91;25937;-60
2021/06/05 10:55:15;;;;;;;5.65;4.12;;;;;;;26.80;42.87;100696.70;1525021;91;25740;-58
2021/06/05 10:57:49;;;;;;;4.50;4.10;;;;;;;26.64;43.13;100688.93;1495888;92;27976;-58
2021/06/05 11:00:27;;;;;;;4.42;4.03;;;;;;;26.50;42.53;100687.65;1540703;90;26008;-59
2021/06/05 11:02:58;;;;;;;4.83;4.20;;;;;;;26.45;42.77;100684.09;1538948;90;25991;-58
2021/06/05 11:05:34;;;;;;;4.90;3.92;;;;;;;26.64;42.95;100687.55;1538619;91;26235;-59
2021/06/05 11:08:21;;;;;;;5.78;3.52;;;;;;;27.05;42.57;100684.58;1544268;90;25929;-58
2021/06/05 11:10:55;;;;;;;5.30;3.58;;;;;;;27.51;43.09;100686.83;1535315;91;29619;-58
2021/06/05 11:13:43;;;;;;;4.25;3.85;;;;;;;28.04;42.55;100682.38;1526691;91;25945;-58
2021/06/05 11:16:20;;;;;;;5.65;4.00;;;;;;;28.53;41.28;100679.23;1520233;91;26598;-57
2021/06/05 11:19:00;;;;;;;4.05;3.75;;;;;;;28.76;39.63;100685.41;1520447;91;26571;-58
2021/06/05 11:22:01;;;;;;;4.20;3.90;;;;;;;28.58;39.05;100676.00;1529598;91;26568;-58
2021/06/05 11:24:31;;;;;;;4.67;4.00;;;;;;;28.41;39.24;100673.66;1513792;92;27529;-57
2021/06/05 11:27:01;;;;;;;4.80;3.40;;;;;;;28.41;38.14;100675.06;1517895;92;26065;-56
2021/06/05 11:29:33;;;;;;;4.22;3.75;;;;;;;28.07;37.55;100677.37;1524296;91;26057;-58
2021/06/05 11:32:35;;;;;;;4.90;3.62;;;;;;;27.93;37.59;100681.94;1516242;92;26056;-57
2021/06/05 11:35:13;;;;;;;4.35;3.77;;;;;;;27.75;38.01;100669.67;1531175;90;25952;-58
2021/06/05 11:37:51;;;;;;;4.47;4.08;;;;;;;27.53;38.15;100669.75;1515759;92;27756;-56
2021/06/05 11:40:44;;;;;;;4.40;4.00;;;;;;;26.96;37.19;100662.26;1519019;92;25916;-57
2021/06/05 11:43:34;;;;;;;5.28;4.05;;;;;;;26.55;37.25;100662.25;1524779;90;25902;-57
2021/06/05 11:46:24;;;;;;;4.15;3.80;;;;;;;26.04;38.44;100654.91;1523391;92;26072;-58
2021/06/05 11:49:01;;;;;;;5.28;4.30;;;;;;;25.71;39.75;100658.43;1531623;89;25910;-57
2021/06/05 11:51:37;;;;;;;5.05;3.85;;;;;;;25.56;40.35;100657.73;1546282;90;28431;-57
2021/06/05 11:54:14;;;;;;;4.53;4.00;;;;;;;25.67;40.86;100657.06;1555305;89;25796;-57
2021/06/05 11:57:00;;;;;;;4.35;3.98;;;;;;;26.11;41.06;100647.16;1572860;88;25748;-55
2021/06/05 11:59:43;;;;;;;4.35;3.95;;;;;;;26.52;40.29;100650.58;1537111;91;25772;-57
2021/06/05 12:02:30;;;;;;;8.90;4.42;;;;;;;27.07;40.11;100648.25;1519269;91;25807;-57
2021/06/05 12:05:18;;;;;;;4.07;3.77;;;;;;;27.62;40.18;100653.95;1513476;92;27373;-57
2021/06/05 12:07:45;;;;;;;4.12;3.72;;;;;;;28.04;38.79;100649.02;1570282;88;25835;-54
2021/06/05 12:10:32;;;;;;;4.80;4.30;;;;;;;28.09;37.81;100649.94;1562350;89;25859;-54
2021/06/05 12:13:00;;;;;;;4.50;4.15;;;;;;;27.95;37.66;100646.77;1539497;90;26107;-54
2021/06/05 12:15:40;;;;;;;5.25;4.70;;;;;;;27.79;37.05;100644.61;1530087;91;25796;-54
2021/06/05 12:18:24;;;;;;;4.50;4.10;;;;;;;27.63;36.92;100651.38;1519370;92;27939;-55
2021/06/05 12:20:59;;;;;;;5.08;4.15;;;;;;;27.44;37.97;100648.65;1519014;91;26053;-54
2021/06/05 12:23:39;;;;;;;5.97;3.95;;;;;;;27.26;37.87;100642.70;1529526;91;25980;-57
2021/06/05 12:26:21;;;;;;;4.72;3.83;;;;;;;27.14;38.05;100644.03;1552735;90;25947;-58
2021/06/05 12:28:52;;;;;;;5.90;4.08;;;;;;;27.05;37.63;100640.16;1548328;90;25745;-55
2021/06/05 12:31:39;;;;;;;5.08;3.90;;;;;;;26.90;38.11;100639.53;1544894;90;27605;-54
2021/06/05 12:34:09;;;;;;;4.65;3.77;;;;;;;26.80;38.08;100632.30;1553154;90;25828;-57
2021/06/05 12:36:44;;;;;;;4.28;3.87;;;;;;;26.84;38.25;100634.42;1551909;90;25715;-57
2021/06/05 12:39:23;;;;;;;4.10;3.75;;;;;;;26.99;38.46;100631.52;1552089;90;25937;-57
2021/06/05 12:41:52;;;;;;;4.65;3.40;;;;;;;27.18;38.39;100625.33;1562184;89;25894;-57
2021/06/05 12:44:31;;;;;;;6.65;3.72;;;;;;;27.57;38.32;100623.28;1564878;89;27503;-57
2021/06/05 12:47:02;;;;;;;4.00;3.60;;;;;;;27.88;37.52;100621.84;1552663;89;26241;-54
2021/06/05 12:49:30;;;;;;;4.62;3.95;;;;;;;28.20;36.27;100618.58;1576319;89;25742;-56
2021/06/05 12:52:05;;;;;;;6.30;4.35;;;;;;;28.48;36.21;100607.55;1578318;89;25922;-58
2021/06/05 12:54:37;;;;;;;6.65;4.03;;;;;;;28.74;35.71;100605.15;1571707;89;25732;-56
2021/06/05 12:57:38;;;;;;;5.72;4.10;;;;;;;28.88;36.41;100602.69;1584457;88;27348;-56
2021/06/05 13:00:31;;;;;;;4.30;3.90;;;;;;;29.19;36.01;100590.73;1568007;90;25733;-57
2021/06/05 13:03:12;;;;;;;5.33;3.98;;;;;;;29.44;35.13;100590.81;1564731;89;25814;-56
2021/06/05 13:06:03;;;;;;;5.17;3.87;;;;;;;29.55;35.42;100584.38;1569922;89;25949;-56
2021/06/05 13:08:34;;;;;;;9.90;4.20;;;;;;;29.79;34.36;100575.90;1572324;88;25981;-56
2021/06/05 13:11:03;;;;;;;4.87;4.47;;;;;;;29.79;34.00;100580.85;1583580;88;28030;-57
2021/06/05 13:13:33;;;;;;;4.28;3.98;;;;;;;29.71;33.83;100580.84;1577614;88;28087;-57
2021/06/05 13:16:19;;;;;;;5.67;4.30;;;;;;;29.71;34.58;100579.45;1575672;89;25712;-56
2021/06/05 13:18:49;;;;;;;4.37;3.98;;;;;;;29.84;34.14;100577.39;1565340;89;25845;-57
2021/06/05 13:21:30;;;;;;;5.05;4.00;;;;;;;29.78;34.10;100581.28;1564624;89;25832;-59
2021/06/05 13:24:19;;;;;;;6.92;4.70;;;;;;;29.54;33.81;100584.22;1578673;89;27499;-64
2021/06/05 13:26:50;;;;;;;5.40;4.42;;;;;;;29.40;34.05;100580.34;1569581;89;25931;-59
2021/06/05 13:29:34;;;;;;;5.08;3.87;;;;;;;29.02;35.62;100582.13;1572913;89;26451;-61
2021/06/05 13:32:21;;;;;;;6.42;3.72;;;;;;;28.69;36.43;100589.73;1586594;87;26555;-60
2021/06/05 13:34:52;;;;;;;4.10;3.70;;;;;;;28.20;37.35;100585.22;1557809;88;25852;-61
2021/06/05 13:37:27;;;;;;;11.93;5.17;;;;;;;27.58;38.10;100585.36;1563505;89;27327;-62
2021/06/05 13:39:58;;;;;;;4.20;3.77;;;;;;;27.20;38.56;100579.87;1601596;87;25904;-63
2021/06/05 13:42:29;;;;;;;4.47;4.08;;;;;;;26.93;39.18;100578.43;1573045;87;26042;-62
2021/06/05 13:44:56;;;;;;;4.22;3.83;;;;;;;26.59;39.58;100575.61;1591504;88;25759;-60
2021/06/05 13:47:23;;;;;;;10.43;5.25;;;;;;;26.24;40.33;100574.78;1587768;89;25748;-63
2021/06/05 13:49:51;;;;;;;4.60;4.00;;;;;;;25.93;41.00;100580.73;1578387;89;27358;-63
2021/06/05 13:52:29;;;;;;;5.22;4.22;;;;;;;25.64;41.59;100580.34;1582039;89;25745;-65
2021/06/05 13:55:15;;;;;;;4.58;4.17;;;;;;;25.42;42.66;100583.84;1572500;89;26592;-64
2021/06/05 13:57:42;;;;;;;4.42;4.00;;;;;;;25.22;43.82;100575.81;1576051;89;25889;-63
2021/06/05 14:00:12;;;;;;;4.75;4.08;;;;;;;25.13;44.98;100575.64;1579081;89;25914;-61
2021/06/05 14:02:40;;;;;;;5.97;4.10;;;;;;;25.28;44.60;100577.75;1579939;89;27335;-62
2021/06/05 14:05:09;;;;;;;5.75;4.10;;;;;;;25.48;43.91;100580.82;1578178;89;25906;-61
2021/06/05 14:07:36;;;;;;;7.37;3.85;;;;;;;25.67;42.47;100577.34;1579040;89;25880;-61
2021/06/05 14:10:05;;;;;;;4.20;3.90;;;;;;;25.86;41.45;100576.84;1593501;87;26201;-63
2021/06/05 14:12:33;;;;;;;4.15;3.85;;;;;;;26.02;41.04;100576.34;1565492;89;25628;-60
2021/06/05 14:15:00;;;;;;;7.33;4.00;;;;;;;26.26;41.04;100569.00;1565033;90;27512;-61
2021/06/05 14:17:27;;;;;;;10.20;4.40;;;;;;;26.51;40.74;100579.08;1569295;88;26345;-62
2021/06/05 14:19:54;;;;;;;4.08;3.75;;;;;;;26.65;39.83;100580.94;1568009;89;26547;-61
2021/06/05 14:22:22;;;;;;;7.17;3.98;;;;;;;26.61;39.72;100577.38;1581702;88;25922;-61
2021/06/05 14:24:48;;;;;;;4.83;3.85;;;;;;;26.56;39.86;100577.82;1568651;89;25786;-61
2021/06/05 14:27:16;;;;;;;4.97;4.40;;;;;;;26.40;39.48;100580.55;1591123;88;27340;-61
2021/06/05 14:29:44;;;;;;;4.12;3.72;;;;;;;26.22;39.39;100584.89;1580360;88;26214;-61
2021/06/05 14:32:11;;;;;;;4.12;3.72;;;;;;;26.01;39.30;100580.90;1579756;88;25732;-61
2021/06/05 14:34:39;;;;;;;5.15;4.12;;;;;;;25.85;39.47;100586.94;1575297;89;25771;-61
2021/06/05 14:37:06;;;;;;;8.88;4.00;;;;;;;25.68;39.62;100585.86;1577491;89;25930;-60
2021/06/05 14:39:33;;;;;;;5.00;4.40;;;;;;;25.53;39.84;100579.62;1582024;89;27296;-61
2021/06/05 14:42:04;;;;;;;5.25;4.37;;;;;;;25.34;40.14;100580.31;1575877;89;26143;-61
2021/06/05 14:44:32;;;;;;;5.05;4.55;;;;;;;25.15;40.32;100576.63;1567715;89;25909;-62
2021/06/05 14:46:59;;;;;;;5.87;4.47;;;;;;;24.99;40.72;100574.30;1565482;89;26154;-61
2021/06/05 14:49:25;;;;;;;6.28;4.75;;;;;;;24.84;40.77;100579.08;1583568;88;25772;-62
2021/06/05 14:51:52;;;;;;;6.60;4.50;;;;;;;24.71;41.03;100571.83;1587141;89;27454;-62
2021/06/05 14:54:20;;;;;;;5.50;4.97;;;;;;;24.58;41.31;100570.67;1581312;89;26139;-61
2021/06/05 14:56:47;;;;;;;4.50;4.10;;;;;;;24.45;41.60;100570.86;1572800;89;26513;-61
2021/06/05 14:59:14;;;;;;;5.08;4.30;;;;;;;24.31;42.16;100576.59;1570792;89;26476;-61
2021/06/05 15:01:41;;;;;;;6.87;5.08;;;;;;;24.18;42.69;100572.67;1575538;89;25951;-61
2021/06/05 15:04:09;;;;;;;9.58;6.92;;;;;;;24.03;43.61;100572.66;1577201;89;28069;-60
2021/06/05 15:06:38;;;;;;;10.18;5.87;;;;;;;23.91;43.98;100575.04;1580138;89;25750;-65
2021/06/05 15:09:07;;;;;;;5.58;5.08;;;;;;;23.77;44.84;100579.89;1557120;90;26706;-63
2021/06/05 15:11:34;;;;;;;;;;;;;;;23.62;45.12;100577.72;1567234;89;25849;-62
2021/06/05 15:14:02;;;;;;;7.85;5.28;;;;;;;23.51;46.08;100577.68;1576805;88;25869;-61
2021/06/05 15:16:28;;;;;;;5.95;5.00;;;;;;;23.36;46.14;100576.06;1572260;89;27361;-69
2021/06/05 15:18:55;;;;;;;5.35;4.80;;;;;;;23.30;46.80;100576.44;1584672;88;25992;-59
2021/06/05 15:21:23;;;;;;;9.83;4.80;;;;;;;23.31;47.42;100569.75;1568875;89;25745;-62
2021/06/05 15:23:50;;;;;;;5.92;4.92;;;;;;;23.36;47.85;100568.59;1589474;87;26668;-62
2021/06/05 15:26:18;;;;;;;17.35;8.50;;;;;;;23.45;47.79;100564.86;1588495;87;25906;-68
2021/06/05 15:28:44;;;;;;;7.28;5.67;;;;;;;23.54;47.74;100561.72;1569137;89;27505;-59
2021/06/05 15:31:11;;;;;;;6.05;5.00;;;;;;;23.70;47.51;100559.99;1573267;89;25713;-61
2021/06/05 15:33:39;;;;;;;7.40;5.45;;;;;;;23.83;47.15;100552.91;1570647;89;26635;-61
2021/06/05 15:36:11;;;;;;;7.85;5.25;;;;;;;23.88;46.02;100557.86;1578456;89;26393;-60
2021/06/05 15:38:38;;;;;;;8.30;5.62;;;;;;;23.90;45.72;100556.27;1578734;89;25963;-61
2021/06/05 15:41:06;;;;;;;6.12;5.53;;;;;;;23.96;45.94;100562.22;1571888;87;27564;-60
2021/06/05 15:43:35;;;;;;;8.15;5.60;;;;;;;24.03;45.92;100571.88;1586081;89;26545;-60
2021/06/05 15:46:04;;;;;;;;;;;;;;;24.09;46.23;100572.27;1568417;89;25870;-60
2021/06/05 15:48:44;;;;;;;8.73;5.87;;;;;;;24.09;47.07;100573.65;1559349;89;25771;-61
2021/06/05 15:51:16;;;;;;;8.43;5.75;;;;;;;23.98;47.11;100574.44;1566527;89;26157;-60
2021/06/05 15:53:44;;;;;;;8.30;5.60;;;;;;;23.81;47.12;100572.42;1591505;88;27340;-59
2021/06/05 15:56:15;;;;;;;8.83;5.15;;;;;;;23.66;47.47;100566.86;1589019;88;25720;-60
2021/06/05 15:58:42;;;;;;;7.28;5.42;;;;;;;23.55;48.29;100566.64;1593118;88;26106;-61
2021/06/05 16:01:10;;;;;;;9.63;5.97;;;;;;;23.36;48.49;100566.41;1591939;87;25837;-60
2021/06/05 16:03:37;;;;;;;11.03;6.12;;;;;;;23.21;48.53;100569.73;1606803;87;25730;-61
2021/06/05 16:06:05;;;;;;;7.37;6.10;;;;;;;23.06;48.85;100566.89;1595966;88;27329;-60
2021/06/05 16:08:32;;;;;;;11.05;6.22;;;;;;;22.90;49.30;100562.25;1593096;88;25828;-60
2021/06/05 16:10:59;;;;;;;7.72;6.20;;;;;;;22.74;49.79;100556.46;1586727;89;25718;-59
2021/06/05 16:13:27;;;;;;;8.83;5.97;;;;;;;22.61;49.98;100565.44;1578616;89;25950;-60
2021/06/05 16:16:11;;;;;;;9.08;5.92;;;;;;;22.51;50.49;100565.60;1590325;88;26184;-61
2021/06/05 16:18:41;;;;;;;13.18;6.05;;;;;;;22.45;50.84;100554.12;1595693;88;27351;-57
2021/06/05 16:21:10;;;;;;;;;;;;;;;22.45;51.12;100560.23;1583521;88;25853;-59
2021/06/05 16:23:39;;;;;;;7.25;5.90;;;;;;;22.47;51.40;100562.80;1582947;88;25805;-60
2021/06/05 16:26:09;;;;;;;7.15;5.55;;;;;;;22.46;51.05;100565.37;1588004;88;26540;-59
2021/06/05 16:28:36;;;;;;;7.10;5.72;;;;;;;22.44;51.22;100562.77;1586418;88;25540;-59
2021/06/05 16:31:04;;;;;;;10.30;5.20;;;;;;;22.40;51.08;100561.38;1536574;91;27345;-59
2021/06/05 16:33:31;;;;;;;9.28;5.70;;;;;;;22.39;51.00;100559.81;1549196;89;26641;-59
2021/06/05 16:36:00;;;;;;;8.00;6.15;;;;;;;22.42;51.27;100563.16;1516053;92;26415;-58
2021/06/05 16:38:28;;;;;;;7.53;5.53;;;;;;;22.50;51.34;100562.63;1567571;89;25925;-61
2021/06/05 16:40:58;;;;;;;7.00;5.80;;;;;;;22.54;51.13;100566.19;1559587;90;25883;-60
2021/06/05 16:43:29;;;;;;;7.55;4.85;;;;;;;22.56;50.97;100560.51;1555883;90;27312;-60
2021/06/05 16:45:57;;;;;;;10.50;5.37;;;;;;;22.55;50.58;100565.80;1565211;89;26432;-60
2021/06/05 16:48:25;;;;;;;10.88;5.60;;;;;;;22.50;50.51;100553.77;1568751;90;26426;-66
2021/06/05 16:50:55;;;;;;;7.87;5.78;;;;;;;22.45;50.54;100559.64;1562830;90;25881;-66
2021/06/05 16:53:26;;;;;;;9.38;5.55;;;;;;;22.36;50.89;100571.00;1574680;89;25892;-65
2021/06/05 16:55:55;;;;;;;6.40;5.55;;;;;;;22.28;51.05;100562.47;1567395;89;27349;-63
2021/06/05 16:58:24;;;;;;;;;;;;;;;22.17;51.36;100559.61;1577541;89;25847;-66
2021/06/05 17:00:52;;;;;;;11.53;5.92;;;;;;;22.05;51.63;100564.61;1571543;88;25918;-64
2021/06/05 17:03:21;;;;;;;10.50;6.13;;;;;;;21.93;51.75;100561.00;1581131;89;25824;-63
2021/06/05 17:05:48;;;;;;;7.50;5.75;;;;;;;21.87;52.24;100559.75;1576733;89;26577;-61
2021/06/05 17:08:15;;;;;;;7.92;5.87;;;;;;;21.81;52.45;100564.82;1573843;89;27506;-62
2021/06/05 17:10:43;;;;;;;6.28;5.67;;;;;;;21.79;52.56;100566.36;1542438;91;26400;-61
2021/06/05 17:13:13;;;;;;;9.33;6.33;;;;;;;21.76;53.08;100567.92;1545699;91;26554;-62
2021/06/05 17:15:44;;;;;;;6.60;5.90;;;;;;;21.75;53.57;100568.30;1542120;91;25811;-63
2021/06/05 17:18:13;;;;;;;10.72;6.55;;;;;;;21.70;53.55;100563.91;1546557;91;25808;-62
2021/06/05 17:20:40;;;;;;;9.28;5.90;;;;;;;21.69;53.68;100569.23;1540562;91;27195;-62
2021/06/05 17:23:11;;;;;;;7.97;5.35;;;;;;;21.67;53.51;100561.12;1536322;92;25722;-62
2021/06/05 17:25:41;;;;;;;10.13;5.65;;;;;;;21.64;53.24;100560.72;1540197;91;26097;-63
2021/06/05 17:28:09;;;;;;;10.23;5.05;;;;;;;21.58;53.39;100563.59;1534752;91;25901;-63
2021/06/05 17:30:37;;;;;;;8.70;5.47;;;;;;;21.54;53.04;100565.53;1557210;90;25784;-59
2021/06/05 17:33:06;;;;;;;8.68;5.22;;;;;;;21.50;53.05;100564.69;1562111;90;27397;-58
2021/06/05 17:35:36;;;;;;;7.20;5.15;;;;;;;21.47;52.77;100564.66;1570806;89;26425;-59
2021/06/05 17:38:03;;;;;;;7.00;5.83;;;;;;;21.41;53.00;100564.96;1556767;89;25950;-59
2021/06/05 17:40:33;;;;;;;7.95;6.10;;;;;;;21.38;52.67;100562.17;1566661;90;25980;-59
2021/06/05 17:43:02;;;;;;;7.08;6.30;;;;;;;21.34;52.42;100565.48;1578265;89;26230;-60
2021/06/05 17:45:35;;;;;;;10.15;6.45;;;;;;;21.32;52.35;100565.85;1575203;89;29586;-59
2021/06/05 17:48:04;;;;;;;8.30;6.90;;;;;;;21.26;52.29;100564.00;1574609;89;27200;-59
2021/06/05 17:50:30;;;;;;;10.63;7.40;;;;;;;21.17;52.20;100557.23;1583809;89;26421;-60
2021/06/05 17:52:57;;;;;;;10.78;7.20;;;;;;;21.19;52.16;100560.39;1562653;90;26046;-58
2021/06/05 17:55:28;;;;;;;11.53;7.75;;;;;;;21.14;52.37;100562.87;1561888;90;25904;-58
2021/06/05 17:57:57;;;;;;;7.30;6.08;;;;;;;21.08;52.44;100568.52;1563376;90;27228;-59
2021/06/05 18:00:32;;;;;;;8.08;5.67;;;;;;;21.04;52.28;100575.91;1533631;91;26781;-59
2021/06/05 18:03:04;;;;;;;11.38;6.08;;;;;;;20.99;52.46;100576.23;1502522;92;26485;-59
2021/06/05 18:05:31;;;;;;;6.30;5.33;;;;;;;20.92;52.30;100568.69;1572299;89;25904;-59
2021/06/05 18:08:00;;;;;;;8.10;5.60;;;;;;;20.88;52.70;100570.02;1564826;90;25726;-59
2021/06/05 18:10:27;;;;;;;7.78;5.80;;;;;;;20.85;52.53;100572.72;1569776;90;27369;-59
2021/06/05 18:12:53;;;;;;;6.67;5.20;;;;;;;20.80;52.69;100571.67;1555871;90;25970;-59
2021/06/05 18:15:23;;;;;;;10.08;5.10;;;;;;;20.74;52.73;100569.02;1517848;92;26721;-59
2021/06/05 18:17:50;;;;;;;7.67;5.25;;;;;;;20.66;52.73;100568.15;1566876;90;25758;-59
2021/06/05 18:20:26;;;;;;;6.53;5.10;;;;;;;20.58;52.84;100570.55;1567151;90;26919;-60
2021/06/05 18:22:55;;;;;;;7.40;6.47;;;;;;;20.49;52.93;100573.56;1565511;90;27379;-60
2021/06/05 18:25:24;;;;;;;10.68;5.40;;;;;;;20.43;53.30;100570.91;1573953;90;25946;-60
2021/06/05 18:27:52;;;;;;;8.18;5.55;;;;;;;20.34;53.25;100578.82;1571314;90;25899;-59
2021/06/05 18:30:24;;;;;;;5.72;4.95;;;;;;;20.24;53.38;100582.78;1574137;90;25780;-60
2021/06/05 18:32:52;;;;;;;11.65;5.37;;;;;;;20.13;53.45;100588.89;1575121;90;25908;-60
2021/06/05 18:35:21;;;;;;;8.95;5.70;;;;;;;20.04;53.39;100588.91;1575582;90;27342;-60
2021/06/05 18:37:50;;;;;;;9.78;5.62;;;;;;;19.95;53.45;100591.91;1571474;89;25935;-60